Allendale, Michigan
Current Conditions -  °F | °C
As of 6:53 PM on Wednesday 28 Jan 2015 (Local Time) from KBIV Reporting Station
Clear Clear  
Wind Chill: -7°   Ceiling: Unl
Heat Index: -1°   Visibility: 10mi
Dew Point: -13°   Wind: 16mph
Humidity: 41%   Direction: 130°SE
Pressure: 30.09"   Gusts: NA
Location:  42.97°N, 85.95°W
Report Text: KBIV 282353Z AUTO 13014KT 10SM CLR M01/M13 A3009 RMK AO2 SLP199 T10111128 10006 21011 58028
Loading
Personal Weather Stations






























Interactive Weather Map New forecast layout! Learn more

10-Day Weather Forecast

Advertisements
Track Severe Weather on mobile